createdAt,value
2018-12-07T00:01:11.259Z,55.25
2018-12-07T00:03:38.976Z,55.56
2018-12-07T00:06:06.739Z,55.54
2018-12-07T00:08:34.606Z,55.66
2018-12-07T00:11:02.363Z,54.91
2018-12-07T00:13:30.115Z,55.43
2018-12-07T00:15:57.923Z,54.67
2018-12-07T00:18:25.696Z,55.49
2018-12-07T00:20:53.492Z,55.38
2018-12-07T00:23:21.304Z,55.29
2018-12-07T00:25:49.163Z,55.31
2018-12-07T00:28:16.929Z,54.84
2018-12-07T00:30:44.701Z,55.67
2018-12-07T00:33:12.449Z,54.82
2018-12-07T00:35:40.288Z,55.47
2018-12-07T00:38:07.998Z,55.37
2018-12-07T00:40:35.724Z,55.28
2018-12-07T00:43:03.548Z,55.10
2018-12-07T00:45:31.346Z,55.65
2018-12-07T00:47:59.188Z,55.72
2018-12-07T00:50:26.929Z,54.80
2018-12-07T00:52:54.649Z,54.99
2018-12-07T00:55:28.019Z,55.54
2018-12-07T00:57:55.791Z,55.37
2018-12-07T01:00:23.506Z,55.31
2018-12-07T01:02:51.230Z,54.97
2018-12-07T01:05:18.960Z,54.75
2018-12-07T01:07:46.708Z,55.34
2018-12-07T01:10:14.445Z,54.82
2018-12-07T01:12:42.165Z,55.66
2018-12-07T01:15:09.880Z,54.92
2018-12-07T01:17:37.558Z,55.07
2018-12-07T01:20:05.451Z,55.75
2018-12-07T01:22:33.404Z,55.31
2018-12-07T01:25:01.164Z,54.67
2018-12-07T01:27:29.016Z,55.43
2018-12-07T01:29:56.791Z,55.65
2018-12-07T01:32:24.531Z,54.58
2018-12-07T01:34:52.263Z,55.41
2018-12-07T01:37:20.049Z,55.26
2018-12-07T01:39:47.808Z,55.38
2018-12-07T01:42:15.596Z,55.01
2018-12-07T01:44:43.361Z,54.92
2018-12-07T01:47:11.163Z,55.45
2018-12-07T01:49:38.899Z,54.84
2018-12-07T01:52:06.637Z,55.08
2018-12-07T01:54:34.394Z,54.76
2018-12-07T01:57:02.143Z,55.55
2018-12-07T01:59:29.924Z,54.69
2018-12-07T02:01:57.671Z,55.50
2018-12-07T02:04:25.459Z,55.41
2018-12-07T02:06:53.257Z,55.09
2018-12-07T02:09:21.017Z,55.09
2018-12-07T02:11:48.746Z,55.46
2018-12-07T02:14:16.500Z,55.46
2018-12-07T02:16:44.273Z,55.49
2018-12-07T02:19:12.055Z,54.87
2018-12-07T02:21:39.843Z,54.62
2018-12-07T02:24:07.617Z,54.95
2018-12-07T02:26:35.389Z,54.95
2018-12-07T02:29:03.178Z,54.76
2018-12-07T02:31:30.904Z,55.47
2018-12-07T02:33:58.659Z,54.81
2018-12-07T02:36:26.420Z,54.57
2018-12-07T02:38:54.138Z,55.48
2018-12-07T02:41:21.872Z,54.87
2018-12-07T02:43:49.621Z,55.32
2018-12-07T02:46:17.410Z,54.80
2018-12-07T02:48:45.170Z,54.88
2018-12-07T02:51:12.964Z,55.30
2018-12-07T02:53:40.787Z,55.68
2018-12-07T02:56:08.582Z,54.94
2018-12-07T02:58:36.363Z,55.57
2018-12-07T03:01:04.099Z,55.48
2018-12-07T03:03:31.904Z,55.42
2018-12-07T03:05:59.698Z,55.35
2018-12-07T03:08:27.459Z,55.66
2018-12-07T03:10:55.225Z,55.46
2018-12-07T03:13:22.935Z,55.20
2018-12-07T03:15:50.682Z,55.24
2018-12-07T03:18:24.014Z,55.48
2018-12-07T03:20:51.765Z,54.98
2018-12-07T03:23:19.506Z,55.28
2018-12-07T03:25:47.366Z,54.69
2018-12-07T03:28:15.112Z,54.68
2018-12-07T03:30:42.875Z,54.74
2018-12-07T03:33:10.627Z,55.27
2018-12-07T03:35:38.405Z,55.53
2018-12-07T03:38:06.127Z,54.96
2018-12-07T03:40:33.912Z,54.71
2018-12-07T03:43:01.707Z,55.18
2018-12-07T03:45:29.489Z,54.84
2018-12-07T03:47:57.243Z,54.93
2018-12-07T03:50:25.090Z,54.96
2018-12-07T03:52:52.868Z,55.07
2018-12-07T03:55:20.741Z,54.70
2018-12-07T03:57:48.570Z,54.77
2018-12-07T04:00:16.351Z,55.26
2018-12-07T04:02:44.148Z,55.28
2018-12-07T04:05:11.847Z,55.06
2018-12-07T04:07:39.629Z,55.55
2018-12-07T04:10:07.383Z,55.42
2018-12-07T04:12:35.181Z,55.43
2018-12-07T04:15:02.946Z,54.83
2018-12-07T04:17:30.735Z,55.32
2018-12-07T04:19:58.566Z,55.36
2018-12-07T04:22:26.335Z,55.45
2018-12-07T04:24:54.117Z,55.78
2018-12-07T04:27:21.869Z,54.77
2018-12-07T04:29:49.600Z,54.94
2018-12-07T04:32:17.407Z,54.92
2018-12-07T04:34:45.164Z,55.65
2018-12-07T04:37:13.078Z,54.90
2018-12-07T04:39:40.935Z,54.74
2018-12-07T04:42:08.784Z,55.31
2018-12-07T04:44:36.550Z,55.52
2018-12-07T04:47:04.407Z,54.83
2018-12-07T04:49:32.172Z,54.76
2018-12-07T04:51:59.976Z,54.75
2018-12-07T04:54:27.781Z,55.41
2018-12-07T04:56:55.567Z,55.13
2018-12-07T04:59:23.338Z,55.26
2018-12-07T05:01:51.046Z,55.03
2018-12-07T05:04:18.812Z,54.91
2018-12-07T05:06:46.539Z,55.65
2018-12-07T05:09:14.349Z,55.47
2018-12-07T05:11:42.140Z,55.40
2018-12-07T05:14:09.940Z,55.60
2018-12-07T05:16:37.708Z,55.33
2018-12-07T05:19:05.430Z,55.34
2018-12-07T05:21:33.192Z,55.50
2018-12-07T05:24:00.960Z,55.37
2018-12-07T05:26:28.697Z,55.19
2018-12-07T05:28:56.411Z,55.20
2018-12-07T05:31:24.220Z,55.25
2018-12-07T05:33:51.931Z,55.59
2018-12-07T05:36:19.729Z,54.98
2018-12-07T05:38:47.495Z,55.37
2018-12-07T05:41:15.222Z,54.98
2018-12-07T05:43:48.332Z,54.96
2018-12-07T05:46:16.098Z,55.18
2018-12-07T05:48:43.936Z,55.59
2018-12-07T05:51:11.701Z,54.91
2018-12-07T05:53:39.493Z,55.38
2018-12-07T05:56:07.349Z,54.77
2018-12-07T05:58:35.165Z,55.14
2018-12-07T06:01:02.855Z,54.77
2018-12-07T06:03:30.560Z,54.97
2018-12-07T06:05:58.404Z,54.77
2018-12-07T06:08:26.244Z,55.01
2018-12-07T06:10:54.026Z,55.60
2018-12-07T06:13:21.873Z,54.77
2018-12-07T06:15:49.696Z,54.81
2018-12-07T06:18:17.435Z,55.19
2018-12-07T06:20:45.200Z,54.89
2018-12-07T06:23:13.059Z,55.25
2018-12-07T06:25:40.811Z,55.53
2018-12-07T06:28:08.588Z,55.39
2018-12-07T06:30:36.453Z,54.95
2018-12-07T06:33:04.321Z,55.30
2018-12-07T06:35:32.094Z,55.19
2018-12-07T06:37:59.950Z,54.82
2018-12-07T06:40:27.690Z,55.54
2018-12-07T06:42:55.407Z,55.25
2018-12-07T06:45:23.129Z,54.85
2018-12-07T06:47:50.986Z,54.87
2018-12-07T06:50:18.689Z,55.40
2018-12-07T06:52:46.470Z,55.32
2018-12-07T06:55:14.319Z,55.43
2018-12-07T06:57:42.144Z,55.63
2018-12-07T07:00:09.975Z,55.50
2018-12-07T07:02:37.755Z,55.22
2018-12-07T07:05:05.763Z,54.63
2018-12-07T07:07:33.622Z,55.38
2018-12-07T07:10:01.415Z,54.79
2018-12-07T07:12:29.324Z,54.87
2018-12-07T07:14:57.203Z,55.45
2018-12-07T07:17:25.011Z,54.65
2018-12-07T07:19:52.793Z,54.93
2018-12-07T07:22:20.563Z,54.79
2018-12-07T07:24:48.375Z,55.04
2018-12-07T07:27:16.152Z,54.96
2018-12-07T07:29:43.911Z,54.74
2018-12-07T07:32:11.630Z,54.54
2018-12-07T07:34:39.352Z,54.60
2018-12-07T07:37:07.111Z,54.56
2018-12-07T07:39:34.865Z,55.35
2018-12-07T07:42:02.613Z,54.60
2018-12-07T07:44:30.398Z,55.41
2018-12-07T07:46:58.239Z,54.94
2018-12-07T07:49:25.962Z,54.63
2018-12-07T07:51:53.781Z,54.77
2018-12-07T07:54:21.480Z,55.33
2018-12-07T07:56:49.323Z,54.57
2018-12-07T07:59:17.087Z,55.34
2018-12-07T08:01:44.892Z,55.04
2018-12-07T08:04:12.712Z,54.54
2018-12-07T08:06:40.492Z,54.60
2018-12-07T08:09:08.149Z,55.25
2018-12-07T08:11:35.916Z,55.17
2018-12-07T08:14:03.663Z,55.09
2018-12-07T08:16:31.375Z,54.60
2018-12-07T08:18:59.213Z,54.45
2018-12-07T08:21:27.073Z,54.21
2018-12-07T08:23:54.845Z,55.24
2018-12-07T08:26:22.601Z,54.51
2018-12-07T08:28:50.298Z,55.25
2018-12-07T08:31:18.040Z,54.52
2018-12-07T08:33:45.814Z,54.83
2018-12-07T08:36:13.555Z,54.54
2018-12-07T08:38:41.420Z,54.86
2018-12-07T08:41:09.165Z,54.97
2018-12-07T08:43:36.861Z,54.91
2018-12-07T08:46:04.609Z,54.80
2018-12-07T08:48:32.499Z,54.82
2018-12-07T08:51:00.343Z,54.90
2018-12-07T08:53:28.115Z,54.88
2018-12-07T08:55:56.002Z,54.86
2018-12-07T08:58:23.742Z,54.76
2018-12-07T09:00:51.464Z,54.86
2018-12-07T09:03:19.271Z,54.96
2018-12-07T09:05:47.032Z,54.83
2018-12-07T09:08:15.423Z,54.57
2018-12-07T09:10:43.452Z,54.17
2018-12-07T09:13:11.152Z,53.97
2018-12-07T09:15:38.917Z,54.52
2018-12-07T09:18:06.596Z,54.77
2018-12-07T09:20:34.353Z,54.08
2018-12-07T09:23:02.106Z,53.97
2018-12-07T09:25:29.823Z,54.06
2018-12-07T09:27:57.649Z,54.06
2018-12-07T09:30:25.401Z,54.58
2018-12-07T09:32:53.162Z,54.67
2018-12-07T09:35:20.911Z,53.88
2018-12-07T09:37:48.775Z,54.14
2018-12-07T09:40:16.543Z,54.52
2018-12-07T09:42:44.311Z,53.86
2018-12-07T09:45:12.015Z,53.72
2018-12-07T09:47:39.749Z,54.33
2018-12-07T09:50:07.715Z,54.75
2018-12-07T09:52:35.448Z,54.17
2018-12-07T09:55:03.303Z,53.89
2018-12-07T09:57:31.070Z,54.21
2018-12-07T09:59:58.793Z,54.09
2018-12-07T10:02:26.620Z,54.23
2018-12-07T10:04:54.331Z,54.80
2018-12-07T10:07:22.139Z,54.41
2018-12-07T10:09:50.046Z,54.21
2018-12-07T10:12:17.823Z,54.79
2018-12-07T10:14:45.561Z,54.66
2018-12-07T10:17:13.375Z,54.65
2018-12-07T10:19:41.065Z,54.32
2018-12-07T10:22:08.897Z,54.76
2018-12-07T10:24:36.656Z,54.67
2018-12-07T10:27:07.589Z,54.94
2018-12-07T10:29:35.460Z,54.86
2018-12-07T10:32:03.241Z,54.20
2018-12-07T10:34:30.992Z,54.21
2018-12-07T10:36:58.707Z,54.22
2018-12-07T10:39:26.462Z,54.96
2018-12-07T10:41:54.188Z,54.33
2018-12-07T10:44:21.902Z,54.22
2018-12-07T10:46:49.648Z,54.97
2018-12-07T10:49:17.345Z,54.57
2018-12-07T10:51:45.126Z,54.89
2018-12-07T10:54:12.992Z,54.38
2018-12-07T10:56:40.723Z,54.74
2018-12-07T10:59:08.462Z,54.33
2018-12-07T11:01:41.415Z,54.14
2018-12-07T11:04:14.697Z,54.69
2018-12-07T11:06:49.259Z,54.38
2018-12-07T11:09:22.222Z,54.15
2018-12-07T11:12:55.719Z,54.40
2018-12-07T11:15:28.720Z,55.04
2018-12-07T11:18:01.962Z,54.72
2018-12-07T11:20:35.088Z,54.93
2018-12-07T11:23:08.056Z,54.36
2018-12-07T11:25:40.919Z,54.19
2018-12-07T11:28:14.022Z,54.64
2018-12-07T11:30:47.084Z,55.02
2018-12-07T11:33:20.372Z,54.76
2018-12-07T11:35:48.802Z,54.39
2018-12-07T11:38:16.566Z,54.80
2018-12-07T11:40:44.354Z,54.61
2018-12-07T11:43:12.120Z,54.64
2018-12-07T11:45:39.911Z,54.19
2018-12-07T11:48:07.624Z,54.80
2018-12-07T11:50:35.295Z,54.25
2018-12-07T11:53:02.979Z,54.68
2018-12-07T11:55:30.792Z,54.24
2018-12-07T11:57:58.502Z,54.95
2018-12-07T12:00:26.315Z,54.25
2018-12-07T12:02:54.019Z,54.92
2018-12-07T12:05:21.905Z,54.74
2018-12-07T12:07:49.646Z,54.10
2018-12-07T12:10:17.469Z,54.37
2018-12-07T12:12:45.153Z,54.90
2018-12-07T12:15:12.916Z,54.90
2018-12-07T12:17:40.658Z,54.04
2018-12-07T12:20:08.699Z,54.67
2018-12-07T12:22:36.430Z,54.29
2018-12-07T12:25:04.376Z,54.81
2018-12-07T12:27:32.063Z,54.00
2018-12-07T12:29:59.824Z,54.74
2018-12-07T12:32:27.609Z,54.75
2018-12-07T12:34:55.460Z,54.79
2018-12-07T12:37:23.232Z,54.79
2018-12-07T12:39:51.132Z,54.59
2018-12-07T12:42:18.907Z,54.65
2018-12-07T12:44:46.608Z,55.07
2018-12-07T12:47:14.260Z,54.25
2018-12-07T12:49:41.986Z,54.88
2018-12-07T12:52:09.798Z,54.50
2018-12-07T12:54:37.667Z,54.25
2018-12-07T12:57:05.547Z,54.91
2018-12-07T12:59:33.250Z,54.83
2018-12-07T13:02:00.968Z,54.73
2018-12-07T13:04:28.682Z,54.80
2018-12-07T13:06:56.498Z,54.35
2018-12-07T13:09:24.188Z,54.44
2018-12-07T13:11:52.013Z,54.91
2018-12-07T13:14:19.690Z,54.80
2018-12-07T13:16:47.432Z,54.57
2018-12-07T13:19:15.203Z,54.92
2018-12-07T13:21:42.967Z,54.62
2018-12-07T13:24:10.638Z,54.28
2018-12-07T13:26:38.323Z,54.23
2018-12-07T13:29:06.085Z,54.93
2018-12-07T13:31:33.833Z,54.69
2018-12-07T13:34:01.519Z,54.28
2018-12-07T13:36:29.267Z,54.80
2018-12-07T13:38:56.995Z,54.94
2018-12-07T13:41:24.808Z,54.91
2018-12-07T13:43:52.787Z,54.96
2018-12-07T13:46:20.715Z,54.23
2018-12-07T13:48:48.650Z,54.18
2018-12-07T13:51:16.454Z,54.62
2018-12-07T13:53:44.335Z,54.27
2018-12-07T13:56:16.221Z,54.76
2018-12-07T13:58:41.901Z,54.77
2018-12-07T14:01:09.693Z,54.96
2018-12-07T14:03:37.468Z,54.79
2018-12-07T14:06:05.314Z,54.89
2018-12-07T14:08:33.329Z,54.45
2018-12-07T14:11:01.330Z,54.69
2018-12-07T14:13:29.254Z,54.34
2018-12-07T14:15:57.192Z,54.67
2018-12-07T14:18:25.141Z,54.27
2018-12-07T14:20:53.068Z,54.57
2018-12-07T14:23:20.957Z,54.74
2018-12-07T14:25:48.892Z,54.05
2018-12-07T14:28:16.824Z,53.87
2018-12-07T14:30:44.617Z,54.80
2018-12-07T14:33:12.440Z,54.12
2018-12-07T14:35:40.225Z,54.73
2018-12-07T14:38:08.103Z,54.37
2018-12-07T14:40:35.894Z,53.92
2018-12-07T14:43:03.647Z,54.07
2018-12-07T14:45:31.482Z,53.88
2018-12-07T14:47:59.380Z,54.65
2018-12-07T14:50:27.230Z,54.24
2018-12-07T14:52:55.061Z,54.28
2018-12-07T14:55:22.827Z,54.10
2018-12-07T14:57:50.849Z,54.39
2018-12-07T15:00:18.920Z,54.53
2018-12-07T15:02:47.017Z,54.37
2018-12-07T15:05:15.005Z,53.98
2018-12-07T15:07:42.910Z,54.45
2018-12-07T15:10:10.684Z,53.96
2018-12-07T15:12:38.536Z,54.70
2018-12-07T15:15:06.444Z,54.06
2018-12-07T15:17:34.281Z,54.40
2018-12-07T15:20:02.284Z,54.50
2018-12-07T15:22:30.122Z,54.02
2018-12-07T15:24:57.996Z,54.62
2018-12-07T15:27:25.724Z,54.76
2018-12-07T15:29:53.781Z,54.69
2018-12-07T15:32:21.675Z,54.17
2018-12-07T15:34:49.606Z,54.14
2018-12-07T15:37:17.578Z,54.07
2018-12-07T15:39:45.497Z,54.10
2018-12-07T15:42:13.308Z,54.00
2018-12-07T15:44:41.122Z,54.72
2018-12-07T15:47:09.087Z,54.63
2018-12-07T15:49:38.917Z,54.27
2018-12-07T15:52:06.925Z,54.37
2018-12-07T15:54:34.988Z,54.47
2018-12-07T15:57:02.857Z,54.30
2018-12-07T15:59:37.558Z,54.82
2018-12-07T16:02:05.616Z,54.14
2018-12-07T16:04:33.749Z,54.10
2018-12-07T16:07:01.651Z,54.43
2018-12-07T16:09:29.658Z,54.59
2018-12-07T16:11:57.592Z,54.30
2018-12-07T16:14:25.579Z,54.07
2018-12-07T16:16:53.385Z,54.58
2018-12-07T16:19:21.269Z,54.55
2018-12-07T16:21:49.161Z,54.33
2018-12-07T16:24:16.992Z,54.43
2018-12-07T16:26:44.928Z,54.00
2018-12-07T16:29:12.748Z,54.37
2018-12-07T16:31:40.608Z,54.77
2018-12-07T16:34:08.487Z,54.74
2018-12-07T16:36:36.331Z,54.70
2018-12-07T16:39:05.677Z,54.08
2018-12-07T16:41:33.447Z,54.13
2018-12-07T16:44:01.285Z,54.52
2018-12-07T16:46:29.267Z,54.80
2018-12-07T16:48:57.276Z,54.65
2018-12-07T16:51:25.317Z,54.32
2018-12-07T16:53:53.774Z,54.47
2018-12-07T16:56:21.715Z,54.40
2018-12-07T16:58:49.767Z,54.69
2018-12-07T17:01:17.760Z,54.19
2018-12-07T17:03:45.738Z,54.22
2018-12-07T17:06:13.666Z,54.20
2018-12-07T17:08:41.549Z,54.57
2018-12-07T17:11:09.525Z,54.84
2018-12-07T17:13:37.513Z,54.00
2018-12-07T17:16:05.397Z,54.56
2018-12-07T17:18:33.486Z,54.73
2018-12-07T17:21:01.336Z,54.92
2018-12-07T17:23:29.401Z,54.27
2018-12-07T17:25:57.430Z,54.64
2018-12-07T17:28:25.802Z,54.09
2018-12-07T17:30:53.568Z,54.28
2018-12-07T17:33:21.390Z,54.94
2018-12-07T17:35:49.108Z,54.56
2018-12-07T17:38:16.925Z,54.46
2018-12-07T17:40:44.922Z,54.18
2018-12-07T17:43:12.873Z,54.72
2018-12-07T17:45:40.914Z,54.27
2018-12-07T17:48:08.892Z,54.24
2018-12-07T17:50:36.795Z,54.08
2018-12-07T17:53:04.798Z,54.18
2018-12-07T17:55:32.940Z,54.14
2018-12-07T17:58:01.002Z,53.98
2018-12-07T18:00:29.063Z,54.61
2018-12-07T18:02:56.891Z,54.31
2018-12-07T18:05:24.738Z,54.89
2018-12-07T18:07:52.762Z,54.84
2018-12-07T18:10:20.752Z,54.95
2018-12-07T18:12:48.564Z,54.46
2018-12-07T18:15:16.389Z,54.33
2018-12-07T18:17:44.319Z,54.22
2018-12-07T18:20:12.140Z,54.96
2018-12-07T18:22:40.000Z,54.60
2018-12-07T18:25:07.932Z,54.68
2018-12-07T18:27:35.869Z,54.73
2018-12-07T18:30:03.998Z,54.27
2018-12-07T18:32:32.051Z,54.48
2018-12-07T18:35:00.039Z,54.08
2018-12-07T18:37:28.000Z,54.51
2018-12-07T18:39:56.028Z,54.03
2018-12-07T18:42:23.926Z,53.97
2018-12-07T18:44:51.838Z,54.69
2018-12-07T18:47:19.652Z,54.15
2018-12-07T18:49:47.438Z,54.50
2018-12-07T18:52:15.279Z,54.27
2018-12-07T18:54:43.001Z,54.74
2018-12-07T18:57:10.893Z,53.81
2018-12-07T18:59:38.822Z,53.98
2018-12-07T19:02:06.762Z,54.48
2018-12-07T19:04:34.611Z,53.96
2018-12-07T19:07:02.508Z,54.18
2018-12-07T19:09:30.428Z,53.86
2018-12-07T19:11:58.464Z,53.84
2018-12-07T19:14:26.309Z,54.39
2018-12-07T19:16:54.394Z,53.77
2018-12-07T19:19:22.556Z,53.88
2018-12-07T19:21:50.443Z,54.08
2018-12-07T19:24:18.198Z,54.51
2018-12-07T19:26:46.118Z,54.17
2018-12-07T19:29:14.203Z,54.14
2018-12-07T19:31:42.064Z,53.96
2018-12-07T19:34:09.949Z,54.63
2018-12-07T19:36:38.021Z,54.10
2018-12-07T19:39:07.366Z,53.93
2018-12-07T19:41:35.399Z,53.88
2018-12-07T19:44:03.193Z,54.27
2018-12-07T19:46:31.127Z,54.25
2018-12-07T19:48:59.211Z,54.44
2018-12-07T19:51:27.277Z,54.08
2018-12-07T19:53:55.212Z,54.13
2018-12-07T19:56:23.470Z,53.68
2018-12-07T19:58:51.331Z,54.19
2018-12-07T20:01:19.783Z,54.23
2018-12-07T20:03:47.722Z,54.23
2018-12-07T20:06:15.723Z,54.77
2018-12-07T20:08:43.682Z,53.92
2018-12-07T20:11:11.605Z,53.98
2018-12-07T20:13:39.392Z,54.17
2018-12-07T20:16:07.126Z,53.85
2018-12-07T20:18:35.201Z,54.29
2018-12-07T20:21:03.045Z,54.23
2018-12-07T20:23:30.832Z,54.02
2018-12-07T20:25:58.932Z,54.63
2018-12-07T20:28:26.830Z,54.36
2018-12-07T20:30:54.789Z,54.54
2018-12-07T20:33:22.876Z,53.93
2018-12-07T20:35:50.732Z,54.44
2018-12-07T20:38:18.797Z,54.00
2018-12-07T20:40:46.582Z,54.11
2018-12-07T20:43:14.262Z,53.91
2018-12-07T20:45:42.255Z,54.34
2018-12-07T20:48:10.363Z,54.51
2018-12-07T20:50:38.219Z,53.78
2018-12-07T20:53:06.016Z,54.57
2018-12-07T20:55:34.189Z,53.82
2018-12-07T20:58:03.655Z,53.99
2018-12-07T21:00:31.643Z,54.25
2018-12-07T21:02:59.615Z,53.67
2018-12-07T21:09:05.938Z,54.00
2018-12-07T21:11:39.490Z,53.98
2018-12-07T21:14:10.733Z,54.63
2018-12-07T21:16:53.660Z,54.13
2018-12-07T21:19:21.742Z,54.05
2018-12-07T21:21:49.981Z,53.79
2018-12-07T21:24:18.052Z,54.36
2018-12-07T21:26:46.158Z,54.19
2018-12-07T21:29:14.089Z,54.42
2018-12-07T21:31:42.014Z,54.33
2018-12-07T21:34:16.230Z,54.00
2018-12-07T21:36:45.292Z,53.69
2018-12-07T21:39:17.455Z,54.37
2018-12-07T21:41:45.296Z,54.27
2018-12-07T21:44:13.382Z,54.28
2018-12-07T21:46:41.304Z,53.89
2018-12-07T21:49:09.210Z,54.23
2018-12-07T21:51:43.106Z,53.84
2018-12-07T21:54:11.192Z,54.29
2018-12-07T21:56:39.369Z,53.88
2018-12-07T21:59:07.486Z,54.03
2018-12-07T22:01:35.573Z,54.27
2018-12-07T22:04:03.508Z,54.31
2018-12-07T22:06:31.556Z,53.58
2018-12-07T22:08:59.748Z,53.62
2018-12-07T22:11:27.826Z,53.64
2018-12-07T22:13:55.642Z,54.75
2018-12-07T22:16:23.464Z,54.06
2018-12-07T22:18:51.540Z,54.07
2018-12-07T22:21:19.592Z,53.93
2018-12-07T22:23:47.575Z,54.39
2018-12-07T22:26:15.459Z,53.81
2018-12-07T22:28:43.497Z,54.39
2018-12-07T22:31:11.698Z,53.86
2018-12-07T22:33:39.781Z,54.49
2018-12-07T22:36:09.585Z,54.76
2018-12-07T22:38:37.517Z,54.09
2018-12-07T22:41:05.526Z,54.48
2018-12-07T22:43:33.426Z,54.14
2018-12-07T22:46:01.472Z,53.97
2018-12-07T22:48:29.463Z,54.07
2018-12-07T22:50:57.368Z,54.28
2018-12-07T22:53:25.111Z,54.79
2018-12-07T22:55:52.878Z,54.44
2018-12-07T22:58:20.675Z,54.30
2018-12-07T23:00:48.457Z,54.07
2018-12-07T23:03:16.331Z,54.19
2018-12-07T23:05:44.196Z,53.73
2018-12-07T23:08:11.935Z,54.44
2018-12-07T23:10:39.839Z,53.86
2018-12-07T23:13:07.655Z,54.46
2018-12-07T23:15:35.502Z,54.51
2018-12-07T23:18:03.318Z,54.68
2018-12-07T23:20:31.199Z,54.62
2018-12-07T23:22:58.945Z,53.95
2018-12-07T23:25:26.721Z,54.70
2018-12-07T23:27:54.473Z,53.87
2018-12-07T23:30:22.245Z,54.68
2018-12-07T23:32:50.011Z,54.74
2018-12-07T23:35:17.815Z,54.53
2018-12-07T23:37:45.623Z,54.54
2018-12-07T23:40:13.514Z,54.71
2018-12-07T23:42:41.287Z,54.58
2018-12-07T23:45:08.983Z,54.57
2018-12-07T23:47:36.724Z,53.83
2018-12-07T23:50:04.792Z,54.31
2018-12-07T23:52:32.527Z,53.82
2018-12-07T23:55:00.274Z,53.92
2018-12-07T23:57:28.079Z,54.44
2018-12-07T23:59:55.866Z,54.15
